Time;durP1;ratioP1;P1;durP2;ratioP2;P2;SDS_P1;SDS_P2;PMS_P1;PMS_P2;Temp;Humidity;BMP_temperature;BMP_pressure;BME280_temperature;BME280_humidity;BME280_pressure;Samples;Min_cycle;Max_cycle;Signal;HPM_P1;HPM_P2
2021/03/13 00:00:15;;;;;;;14.80;2.10;;;7.60;83.80;;;;;;5051827;28;20028;-80
2021/03/13 00:02:42;;;;;;;12.10;2.25;;;7.60;83.80;;;;;;5021860;28;20402;-80
2021/03/13 00:05:09;;;;;;;11.77;2.00;;;7.70;83.90;;;;;;5018734;28;20029;-80
2021/03/13 00:07:35;;;;;;;8.88;2.13;;;7.70;83.80;;;;;;5033117;28;20033;-80
2021/03/13 00:10:00;;;;;;;8.25;1.70;;;7.70;83.90;;;;;;5053129;28;20021;-80
2021/03/13 00:12:26;;;;;;;7.90;1.70;;;7.70;83.90;;;;;;5035373;28;20033;-80
2021/03/13 00:14:52;;;;;;;8.68;1.77;;;7.70;83.90;;;;;;5053245;28;20031;-80
2021/03/13 00:17:17;;;;;;;7.18;1.80;;;7.70;83.90;;;;;;5052111;28;20119;-80
2021/03/13 00:19:43;;;;;;;6.95;1.58;;;7.70;84.00;;;;;;5046635;28;20103;-80
2021/03/13 00:22:09;;;;;;;7.97;1.38;;;7.70;83.90;;;;;;5050539;28;20111;-80
2021/03/13 00:24:35;;;;;;;8.52;1.92;;;7.70;84.00;;;;;;5035425;28;20033;-80
2021/03/13 00:27:01;;;;;;;10.35;1.70;;;7.70;84.10;;;;;;5052900;28;20025;-80
2021/03/13 00:29:26;;;;;;;9.27;2.05;;;7.70;84.20;;;;;;5037586;28;20469;-80
2021/03/13 00:31:54;;;;;;;8.80;1.85;;;7.70;84.10;;;;;;5030916;28;20064;-80
2021/03/13 00:34:21;;;;;;;11.88;2.25;;;7.70;84.30;;;;;;5049953;28;20083;-80
2021/03/13 00:36:48;;;;;;;8.25;1.90;;;7.70;84.40;;;;;;5052798;28;20040;-80
2021/03/13 00:39:15;;;;;;;8.43;1.90;;;7.70;84.60;;;;;;5044377;28;20032;-80
2021/03/13 00:41:40;;;;;;;11.40;2.40;;;7.80;84.70;;;;;;5039912;28;20049;-81
2021/03/13 00:44:06;;;;;;;8.25;2.28;;;7.70;84.90;;;;;;5051265;28;20076;-81
2021/03/13 00:46:32;;;;;;;12.02;1.80;;;7.70;85.20;;;;;;5052791;28;20493;-81
2021/03/13 00:48:58;;;;;;;8.95;1.75;;;7.70;86.20;;;;;;5028376;28;20026;-81
2021/03/13 00:51:24;;;;;;;9.00;2.13;;;7.70;86.10;;;;;;5022396;28;20036;-81
2021/03/13 00:53:50;;;;;;;8.82;2.40;;;7.70;86.40;;;;;;5044148;28;20504;-80
2021/03/13 00:56:15;;;;;;;12.98;2.28;;;7.70;86.70;;;;;;5027773;28;20030;-81
2021/03/13 00:58:41;;;;;;;9.57;2.83;;;7.70;87.20;;;;;;5044000;28;20072;-81
2021/03/13 01:01:07;;;;;;;9.25;2.28;;;7.60;87.80;;;;;;5050843;28;20083;-81
2021/03/13 01:03:32;;;;;;;14.15;2.70;;;7.60;87.60;;;;;;5051130;28;20091;-81
2021/03/13 01:05:58;;;;;;;10.25;2.60;;;7.60;87.90;;;;;;5055252;28;20067;-81
2021/03/13 01:08:24;;;;;;;8.35;2.45;;;7.60;88.20;;;;;;5055515;28;20371;-81
2021/03/13 01:10:52;;;;;;;9.88;2.50;;;7.60;88.50;;;;;;5057917;28;20051;-80
2021/03/13 01:13:20;;;;;;;7.53;2.20;;;7.60;88.70;;;;;;5057254;28;20135;-81
2021/03/13 01:15:46;;;;;;;13.80;2.42;;;7.50;89.00;;;;;;5055153;28;20032;-81
2021/03/13 01:18:12;;;;;;;6.72;2.30;;;7.50;89.10;;;;;;5056931;28;20148;-81
2021/03/13 01:20:39;;;;;;;10.90;2.65;;;7.50;89.40;;;;;;5032635;28;20076;-81
2021/03/13 01:23:04;;;;;;;7.53;2.55;;;7.50;89.70;;;;;;5044664;28;20047;-80
2021/03/13 01:25:30;;;;;;;10.63;2.78;;;7.50;89.90;;;;;;5057151;28;20107;-81
2021/03/13 01:27:56;;;;;;;12.55;2.95;;;7.40;90.00;;;;;;5050725;28;20110;-81
2021/03/13 01:30:22;;;;;;;11.88;2.63;;;7.40;90.10;;;;;;5054268;28;20031;-81
2021/03/13 01:32:49;;;;;;;9.40;2.58;;;7.40;90.20;;;;;;5054843;28;20029;-81
2021/03/13 01:35:15;;;;;;;9.07;2.95;;;7.40;90.30;;;;;;5046364;28;20025;-81
2021/03/13 01:37:41;;;;;;;10.88;2.53;;;7.40;90.30;;;;;;5055067;28;20413;-80
2021/03/13 01:40:10;;;;;;;10.82;2.90;;;7.40;90.40;;;;;;5021776;28;20448;-80
2021/03/13 01:42:37;;;;;;;9.05;2.47;;;7.40;90.40;;;;;;5051658;28;20025;-81
2021/03/13 01:45:05;;;;;;;9.57;2.67;;;7.40;90.50;;;;;;5037297;28;20026;-81
2021/03/13 01:47:31;;;;;;;7.68;2.42;;;7.40;90.60;;;;;;5053823;28;20033;-81
2021/03/13 01:49:57;;;;;;;8.52;2.70;;;7.40;90.60;;;;;;5036616;28;20029;-75
2021/03/13 01:52:23;;;;;;;10.32;3.10;;;7.30;90.70;;;;;;5035196;28;20037;-75
2021/03/13 01:54:49;;;;;;;11.63;3.13;;;7.40;90.80;;;;;;5047696;28;20040;-74
2021/03/13 01:57:19;;;;;;;11.98;3.28;;;7.30;90.80;;;;;;5051538;28;20455;-75
2021/03/13 01:59:45;;;;;;;12.02;3.28;;;7.30;90.90;;;;;;5049632;28;20029;-75
2021/03/13 02:02:13;;;;;;;9.88;2.92;;;7.30;90.90;;;;;;5035260;28;20048;-75
2021/03/13 02:04:39;;;;;;;8.55;3.13;;;7.30;91.00;;;;;;5052262;28;20056;-75
2021/03/13 02:07:11;;;;;;;7.85;3.10;;;7.30;91.00;;;;;;5043096;28;20074;-75
2021/03/13 02:10:02;;;;;;;11.23;3.67;;;7.30;91.10;;;;;;5052295;28;20033;-75
2021/03/13 02:13:06;;;;;;;7.75;3.30;;;7.30;91.20;;;;;;5052789;28;20033;-80
2021/03/13 02:16:01;;;;;;;10.20;3.47;;;7.30;91.20;;;;;;5051594;28;20025;-80
2021/03/13 02:18:56;;;;;;;8.77;3.13;;;7.30;91.20;;;;;;5052530;28;20507;-80
2021/03/13 02:21:48;;;;;;;7.93;3.55;;;7.30;91.30;;;;;;5052604;28;20033;-80
2021/03/13 02:24:17;;;;;;;8.85;3.40;;;7.30;91.30;;;;;;5043184;28;20355;-80
2021/03/13 02:26:52;;;;;;;8.63;3.78;;;7.30;91.30;;;;;;5053771;28;20362;-80
2021/03/13 02:29:39;;;;;;;9.50;3.70;;;7.30;91.30;;;;;;5047399;28;20018;-80
2021/03/13 02:32:12;;;;;;;7.32;3.38;;;7.30;91.40;;;;;;5048868;28;20427;-80
2021/03/13 02:34:42;;;;;;;11.85;3.72;;;7.30;91.40;;;;;;5041963;28;20363;-80
2021/03/13 02:37:17;;;;;;;8.23;3.67;;;7.30;91.70;;;;;;5051339;28;20478;-80
2021/03/13 02:39:46;;;;;;;11.48;3.72;;;7.30;91.50;;;;;;5052108;28;20033;-80
2021/03/13 02:42:13;;;;;;;8.65;3.30;;;7.20;91.60;;;;;;5053303;28;20086;-80
2021/03/13 02:44:39;;;;;;;6.63;3.00;;;7.30;91.70;;;;;;5052468;28;20477;-80
2021/03/13 02:47:06;;;;;;;8.50;2.90;;;7.20;91.70;;;;;;5035792;28;20037;-80
2021/03/13 02:49:35;;;;;;;7.43;3.85;;;7.30;91.70;;;;;;5034471;28;20028;-80
2021/03/13 02:52:02;;;;;;;8.35;3.40;;;7.20;91.70;;;;;;5050281;28;20060;-79
2021/03/13 02:54:28;;;;;;;8.27;3.22;;;7.30;91.80;;;;;;5053097;28;20037;-80
2021/03/13 02:56:56;;;;;;;11.55;3.28;;;7.30;91.80;;;;;;5051440;28;20111;-80
2021/03/13 02:59:22;;;;;;;13.23;3.58;;;7.30;91.80;;;;;;5034327;28;20049;-80
2021/03/13 03:01:49;;;;;;;8.57;3.20;;;7.30;91.80;;;;;;5031491;28;20033;-80
2021/03/13 03:04:16;;;;;;;8.45;2.85;;;7.30;91.80;;;;;;5035442;28;20025;-80
2021/03/13 03:06:46;;;;;;;7.93;3.08;;;7.30;91.70;;;;;;5050588;28;20100;-80
2021/03/13 03:09:12;;;;;;;7.63;2.83;;;7.30;91.70;;;;;;5051387;28;20516;-80
2021/03/13 03:11:41;;;;;;;8.90;2.75;;;7.30;91.70;;;;;;5050678;28;20029;-80
2021/03/13 03:14:09;;;;;;;9.32;3.13;;;7.30;92.00;;;;;;5052063;28;20021;-77
2021/03/13 03:16:39;;;;;;;6.30;2.90;;;7.30;91.80;;;;;;5052570;28;20112;-76
2021/03/13 03:19:05;;;;;;;7.07;2.45;;;7.30;91.80;;;;;;5051198;28;20103;-76
2021/03/13 03:21:32;;;;;;;10.07;2.65;;;7.30;91.80;;;;;;5047957;28;20017;-76
2021/03/13 03:23:58;;;;;;;8.55;2.45;;;7.30;91.90;;;;;;5052003;28;20035;-76
2021/03/13 03:26:23;;;;;;;8.45;2.53;;;7.30;91.90;;;;;;5050809;28;20541;-76
2021/03/13 03:28:49;;;;;;;10.23;2.60;;;7.30;91.90;;;;;;5051161;28;20028;-76
2021/03/13 03:31:15;;;;;;;7.55;2.83;;;7.30;91.90;;;;;;5033777;28;20096;-76
2021/03/13 03:33:42;;;;;;;10.27;2.60;;;7.30;91.90;;;;;;5051077;28;20040;-76
2021/03/13 03:36:09;;;;;;;11.48;2.75;;;7.40;92.00;;;;;;5052490;28;20094;-76
2021/03/13 03:38:35;;;;;;;7.85;2.40;;;7.40;92.00;;;;;;5045653;28;20094;-76
2021/03/13 03:41:01;;;;;;;7.97;2.50;;;7.40;92.10;;;;;;5035162;28;20032;-76
2021/03/13 03:43:35;;;;;;;12.80;2.92;;;7.40;92.00;;;;;;5051441;28;20041;-76
2021/03/13 03:46:04;;;;;;;9.95;2.60;;;7.40;92.10;;;;;;5050837;28;20390;-76
2021/03/13 03:48:30;;;;;;;10.65;2.63;;;7.40;92.10;;;;;;5051907;28;20021;-76
2021/03/13 03:50:57;;;;;;;9.38;2.60;;;7.40;92.20;;;;;;5050847;28;20037;-80
2021/03/13 03:53:27;;;;;;;12.05;2.42;;;7.40;92.20;;;;;;5048307;28;20044;-80
2021/03/13 03:55:55;;;;;;;10.27;2.60;;;7.40;92.20;;;;;;5037927;28;20056;-79
2021/03/13 03:58:28;;;;;;;6.55;1.98;;;7.40;92.30;;;;;;5051927;28;20048;-80
2021/03/13 04:00:56;;;;;;;9.35;2.17;;;7.40;92.30;;;;;;5040508;28;20025;-80
2021/03/13 04:03:23;;;;;;;9.90;2.13;;;7.40;92.30;;;;;;5032333;28;20037;-80
2021/03/13 04:05:49;;;;;;;7.97;2.35;;;7.50;92.20;;;;;;5044917;28;20030;-79
2021/03/13 04:08:17;;;;;;;12.15;2.40;;;7.50;92.30;;;;;;5028785;28;20025;-80
2021/03/13 04:10:47;;;;;;;5.35;2.35;;;7.50;92.30;;;;;;5051697;28;20715;-80
2021/03/13 04:13:16;;;;;;;8.55;2.22;;;7.50;92.30;;;;;;5051792;28;20025;-79
2021/03/13 04:15:43;;;;;;;8.88;1.80;;;7.50;92.20;;;;;;5031181;28;20029;-80
2021/03/13 04:18:10;;;;;;;10.18;2.05;;;7.50;92.30;;;;;;5048690;28;20115;-76
2021/03/13 04:20:38;;;;;;;8.55;2.22;;;7.50;92.30;;;;;;5033274;28;20033;-75
2021/03/13 04:23:04;;;;;;;8.95;2.10;;;7.50;92.30;;;;;;5033699;28;20481;-76
2021/03/13 04:25:31;;;;;;;9.85;2.30;;;7.50;92.30;;;;;;5051732;28;20021;-76
2021/03/13 04:27:58;;;;;;;8.98;2.10;;;7.50;92.30;;;;;;5049059;28;20099;-76
2021/03/13 04:30:24;;;;;;;9.65;2.03;;;7.50;92.30;;;;;;5052091;28;20028;-76
2021/03/13 04:32:53;;;;;;;6.18;1.70;;;7.50;92.30;;;;;;5048504;28;20029;-76
2021/03/13 04:35:20;;;;;;;8.25;1.80;;;7.50;92.30;;;;;;5049269;28;20036;-76
2021/03/13 04:37:48;;;;;;;9.38;1.80;;;7.60;92.30;;;;;;5051155;28;20040;-76
2021/03/13 04:40:14;;;;;;;9.50;1.73;;;7.60;92.30;;;;;;5054019;28;20032;-76
2021/03/13 04:42:42;;;;;;;6.47;1.60;;;7.60;92.30;;;;;;5037271;28;20040;-75
2021/03/13 04:45:10;;;;;;;13.10;2.10;;;7.60;92.20;;;;;;5056111;28;20029;-76
2021/03/13 04:47:37;;;;;;;8.30;2.00;;;7.60;92.20;;;;;;5046951;28;20294;-76
2021/03/13 04:50:05;;;;;;;9.23;2.13;;;7.60;92.20;;;;;;5054752;28;20025;-75
2021/03/13 04:52:30;;;;;;;6.95;1.58;;;7.60;92.20;;;;;;5051168;28;20054;-76
2021/03/13 04:54:56;;;;;;;7.75;1.60;;;7.70;92.20;;;;;;5030807;28;20106;-76
2021/03/13 04:57:22;;;;;;;7.28;1.67;;;7.60;92.30;;;;;;5048031;28;20087;-76
2021/03/13 04:59:49;;;;;;;8.70;1.60;;;7.70;92.30;;;;;;5054358;28;20041;-76
2021/03/13 05:02:15;;;;;;;13.98;2.03;;;7.70;92.30;;;;;;5045039;28;20037;-74
2021/03/13 05:04:40;;;;;;;7.25;1.45;;;7.70;92.20;;;;;;5036388;28;20072;-75
2021/03/13 05:07:06;;;;;;;9.00;1.63;;;7.70;92.20;;;;;;5037534;28;20040;-74
2021/03/13 05:09:31;;;;;;;8.25;1.45;;;7.70;92.20;;;;;;5053558;28;20419;-74
2021/03/13 05:11:57;;;;;;;7.43;1.48;;;7.70;92.20;;;;;;5054538;28;20025;-74
2021/03/13 05:14:22;;;;;;;9.93;1.67;;;7.70;92.40;;;;;;5047965;28;20584;-74
2021/03/13 05:16:48;;;;;;;4.90;1.02;;;7.70;92.40;;;;;;5052000;28;20492;-74
2021/03/13 05:19:14;;;;;;;6.60;1.58;;;7.70;92.40;;;;;;5035762;28;20029;-74
2021/03/13 05:21:39;;;;;;;7.75;1.55;;;7.70;92.40;;;;;;5034820;28;20041;-74
2021/03/13 05:24:05;;;;;;;10.98;1.73;;;7.70;92.50;;;;;;5035114;28;20079;-75
2021/03/13 05:26:31;;;;;;;8.30;1.33;;;7.70;92.50;;;;;;5036794;28;20551;-75
2021/03/13 05:28:57;;;;;;;8.13;1.63;;;7.80;92.40;;;;;;5036726;28;20732;-74
2021/03/13 05:31:23;;;;;;;8.13;1.38;;;7.80;92.70;;;;;;5052221;28;20112;-74
2021/03/13 05:33:49;;;;;;;7.35;1.45;;;7.80;92.70;;;;;;5032571;28;20112;-74
2021/03/13 05:36:14;;;;;;;9.88;1.58;;;7.80;92.50;;;;;;5036519;28;20174;-75
2021/03/13 05:38:40;;;;;;;8.02;1.63;;;7.80;92.40;;;;;;5053792;28;20381;-75
2021/03/13 05:41:06;;;;;;;8.13;1.80;;;7.90;92.30;;;;;;5036829;28;20039;-74
2021/03/13 05:43:33;;;;;;;7.50;1.42;;;7.90;92.60;;;;;;5018472;28;20044;-74
2021/03/13 05:46:02;;;;;;;6.75;1.70;;;7.90;92.30;;;;;;5054090;28;20032;-74
2021/03/13 05:48:30;;;;;;;7.10;1.77;;;7.90;92.20;;;;;;5053027;28;20068;-74
2021/03/13 05:50:59;;;;;;;10.98;1.50;;;7.90;92.20;;;;;;5052669;28;20033;-75
2021/03/13 05:53:25;;;;;;;5.40;0.88;;;7.90;92.20;;;;;;5043142;28;20017;-75
2021/03/13 05:55:54;;;;;;;11.25;1.45;;;7.90;92.20;;;;;;5045002;28;20048;-74
2021/03/13 05:58:24;;;;;;;6.80;1.50;;;8.00;92.30;;;;;;5049767;28;20576;-74
2021/03/13 06:00:52;;;;;;;10.85;1.73;;;7.90;92.20;;;;;;5050612;28;20045;-74
2021/03/13 06:03:17;;;;;;;8.50;1.20;;;7.90;92.20;;;;;;5038769;28;20061;-74
2021/03/13 06:05:46;;;;;;;10.20;1.50;;;8.00;92.20;;;;;;5045978;28;20118;-74
2021/03/13 06:08:16;;;;;;;5.85;1.20;;;8.00;92.20;;;;;;5044914;28;20088;-74
2021/03/13 06:10:42;;;;;;;7.82;1.08;;;8.00;92.20;;;;;;5048230;28;20409;-75
2021/03/13 06:13:08;;;;;;;6.68;1.30;;;8.00;92.10;;;;;;5051869;28;20040;-81
2021/03/13 06:15:34;;;;;;;8.90;1.00;;;8.00;92.10;;;;;;5033974;28;20589;-80
2021/03/13 06:18:01;;;;;;;7.97;1.35;;;8.00;92.10;;;;;;5050597;28;20029;-81
2021/03/13 06:20:36;;;;;;;2.88;0.90;;;8.00;92.10;;;;;;5052531;28;20411;-80
2021/03/13 06:23:12;;;;;;;4.97;0.80;;;8.00;92.00;;;;;;5033547;28;20030;-80
2021/03/13 06:25:39;;;;;;;6.00;1.13;;;8.00;92.00;;;;;;5038624;28;20052;-80
2021/03/13 06:28:20;;;;;;;5.55;1.10;;;8.00;91.90;;;;;;5020670;28;20033;-80
2021/03/13 06:30:48;;;;;;;8.40;1.23;;;8.10;91.90;;;;;;5050341;28;20029;-80
2021/03/13 06:33:25;;;;;;;6.60;1.20;;;8.10;91.90;;;;;;5051973;28;20041;-77
2021/03/13 06:35:53;;;;;;;8.48;1.15;;;8.10;91.90;;;;;;5051275;28;20405;-76
2021/03/13 06:38:21;;;;;;;9.45;1.27;;;8.00;91.90;;;;;;5050515;28;20036;-76
2021/03/13 06:40:49;;;;;;;6.43;1.10;;;8.10;92.10;;;;;;5051343;28;20030;-76
2021/03/13 06:43:22;;;;;;;6.70;1.23;;;8.00;92.30;;;;;;5042395;28;20091;-77
2021/03/13 06:45:56;;;;;;;6.63;0.88;;;8.00;92.70;;;;;;5051752;28;20024;-77
2021/03/13 06:48:41;;;;;;;8.70;1.00;;;7.80;91.00;;;;;;5034185;28;20037;-77
2021/03/13 06:51:27;;;;;;;2.88;0.60;;;7.20;91.00;;;;;;5042868;28;20053;-76
2021/03/13 06:53:58;;;;;;;2.45;0.65;;;7.00;92.10;;;;;;5038719;28;20075;-77
2021/03/13 06:56:29;;;;;;;4.57;0.55;;;6.90;92.30;;;;;;5052485;28;20074;-77
2021/03/13 06:58:56;;;;;;;5.20;0.60;;;6.90;92.40;;;;;;5042328;28;20393;-77
2021/03/13 07:01:27;;;;;;;1.27;0.32;;;7.00;92.20;;;;;;5050549;28;20037;-77
2021/03/13 07:03:53;;;;;;;4.30;0.68;;;7.00;92.10;;;;;;5063622;28;20079;-77
2021/03/13 07:06:20;;;;;;;1.67;0.47;;;7.00;91.90;;;;;;5049353;28;20079;-77
2021/03/13 07:08:46;;;;;;;2.78;0.50;;;7.00;91.70;;;;;;5034313;28;20030;-80
2021/03/13 07:11:13;;;;;;;2.95;0.40;;;7.00;91.60;;;;;;5047183;28;20120;-80
2021/03/13 07:13:42;;;;;;;2.58;0.40;;;6.90;91.60;;;;;;5051375;28;20461;-80
2021/03/13 07:16:26;;;;;;;2.60;0.55;;;6.90;91.60;;;;;;5052965;28;20416;-80
2021/03/13 07:18:54;;;;;;;2.25;0.50;;;6.90;91.60;;;;;;5065544;28;20456;-80
2021/03/13 07:21:21;;;;;;;3.92;0.30;;;6.90;91.60;;;;;;5049833;28;20085;-80
2021/03/13 07:23:55;;;;;;;3.35;0.35;;;6.90;91.60;;;;;;5048139;28;20033;-80
2021/03/13 07:26:24;;;;;;;1.48;0.40;;;6.90;91.80;;;;;;5050313;28;20028;-79
2021/03/13 07:28:52;;;;;;;1.73;0.50;;;6.90;91.50;;;;;;5037307;28;20036;-80
2021/03/13 07:31:19;;;;;;;2.03;0.63;;;7.00;91.40;;;;;;5051494;28;20025;-79
2021/03/13 07:33:48;;;;;;;5.85;0.70;;;7.00;91.30;;;;;;5045179;28;20044;-80
2021/03/13 07:36:18;;;;;;;2.95;0.75;;;7.00;91.20;;;;;;5045757;28;20029;-79
2021/03/13 07:38:45;;;;;;;3.78;0.60;;;7.10;91.10;;;;;;5043356;28;20278;-79
2021/03/13 07:41:15;;;;;;;3.10;0.60;;;7.10;91.00;;;;;;5022122;28;20025;-79
2021/03/13 07:43:42;;;;;;;3.13;1.10;;;7.20;91.10;;;;;;5039664;28;20447;-79
2021/03/13 07:46:09;;;;;;;2.03;0.50;;;7.20;90.70;;;;;;5048859;28;20044;-77
2021/03/13 07:48:36;;;;;;;3.80;0.60;;;7.20;90.50;;;;;;5053128;28;20021;-77
2021/03/13 07:51:06;;;;;;;3.95;0.70;;;7.30;90.40;;;;;;5043836;28;20021;-75
2021/03/13 07:53:35;;;;;;;3.70;0.60;;;7.30;90.30;;;;;;5029195;28;20025;-75
2021/03/13 07:56:04;;;;;;;5.05;0.85;;;7.40;90.20;;;;;;5051818;28;20036;-77
2021/03/13 07:58:30;;;;;;;;;;;7.40;90.00;;;;;;5051061;28;20052;-77
2021/03/13 08:00:58;;;;;;;4.88;1.08;;;7.40;89.80;;;;;;5049706;28;20332;-77
2021/03/13 08:03:27;;;;;;;2.92;0.80;;;7.50;89.90;;;;;;5032608;28;20041;-77
2021/03/13 08:05:59;;;;;;;4.78;0.80;;;7.50;89.80;;;;;;5050359;28;20024;-76
2021/03/13 08:08:41;;;;;;;1.45;0.60;;;7.60;89.70;;;;;;5034407;28;20370;-77
2021/03/13 08:11:17;;;;;;;7.25;0.90;;;7.60;89.90;;;;;;5047797;28;20379;-76
2021/03/13 08:14:00;;;;;;;3.42;1.05;;;7.60;89.70;;;;;;5028345;28;20539;-76
2021/03/13 08:16:35;;;;;;;1.98;0.60;;;7.70;89.80;;;;;;5053015;28;20021;-76
2021/03/13 08:19:02;;;;;;;1.40;0.40;;;7.70;89.50;;;;;;5057026;28;20013;-77
2021/03/13 08:21:39;;;;;;;3.55;0.93;;;7.70;89.30;;;;;;5029735;28;20569;-77
2021/03/13 08:24:05;;;;;;;4.40;0.88;;;7.80;89.20;;;;;;5050516;28;20025;-77
2021/03/13 08:26:33;;;;;;;7.72;0.90;;;7.80;88.70;;;;;;5045304;28;20082;-76
2021/03/13 08:29:06;;;;;;;4.20;0.93;;;7.90;88.20;;;;;;5055785;28;20029;-77
2021/03/13 08:31:32;;;;;;;9.45;1.48;;;7.90;88.00;;;;;;5048501;28;20057;-77
2021/03/13 08:34:04;;;;;;;8.60;1.45;;;8.00;86.80;;;;;;5048542;28;20112;-80
2021/03/13 08:36:31;;;;;;;9.88;1.15;;;8.00;86.40;;;;;;5054566;28;20017;-79
2021/03/13 08:39:03;;;;;;;13.48;1.63;;;8.10;86.20;;;;;;5041296;28;20029;-80
2021/03/13 08:41:41;;;;;;;7.28;1.30;;;8.10;85.20;;;;;;5049984;28;20053;-80
2021/03/13 08:44:11;;;;;;;13.35;1.50;;;8.10;85.30;;;;;;5052074;28;20091;-79
2021/03/13 08:46:48;;;;;;;5.72;1.00;;;8.20;84.40;;;;;;5047989;28;20029;-79
2021/03/13 08:49:29;;;;;;;9.32;1.67;;;8.30;84.90;;;;;;5068190;28;20044;-79
2021/03/13 08:52:10;;;;;;;8.93;1.55;;;8.40;84.70;;;;;;5054351;28;20021;-79
2021/03/13 08:54:38;;;;;;;9.07;1.63;;;8.30;84.80;;;;;;5055240;28;20074;-79
2021/03/13 08:57:04;;;;;;;16.05;2.17;;;8.30;84.60;;;;;;5049232;28;20113;-79
2021/03/13 08:59:30;;;;;;;7.13;1.42;;;8.40;84.10;;;;;;5048403;28;20119;-79
2021/03/13 09:02:02;;;;;;;9.30;1.40;;;8.40;83.80;;;;;;5030377;28;20021;-79
2021/03/13 09:04:29;;;;;;;7.07;1.30;;;8.40;83.60;;;;;;5036258;28;20029;-79
2021/03/13 09:06:55;;;;;;;11.13;1.55;;;8.30;83.10;;;;;;5050881;28;20025;-79
2021/03/13 09:09:22;;;;;;;15.05;2.25;;;8.40;83.30;;;;;;5055008;28;20029;-79
2021/03/13 09:11:59;;;;;;;10.07;1.40;;;8.30;83.30;;;;;;5053196;28;20470;-80
2021/03/13 09:14:25;;;;;;;11.85;2.30;;;8.40;83.10;;;;;;5056315;28;20021;-79
2021/03/13 09:16:52;;;;;;;9.18;2.28;;;8.30;83.20;;;;;;5039376;28;20083;-79
2021/03/13 09:19:17;;;;;;;10.25;1.55;;;8.40;83.90;;;;;;5032684;28;20021;-80
2021/03/13 09:21:46;;;;;;;8.23;1.58;;;8.50;83.60;;;;;;5037382;28;20078;-80
2021/03/13 09:24:18;;;;;;;9.70;1.58;;;8.70;83.50;;;;;;5055258;28;20109;-80
2021/03/13 09:26:51;;;;;;;7.97;1.45;;;8.80;82.30;;;;;;5053726;28;20034;-78
2021/03/13 09:29:26;;;;;;;6.50;1.63;;;8.80;82.00;;;;;;5052607;28;20078;-78
2021/03/13 09:32:05;;;;;;;8.75;1.40;;;8.80;81.80;;;;;;5049052;28;20021;-79
2021/03/13 09:34:33;;;;;;;6.45;1.50;;;8.90;81.90;;;;;;5052679;28;20028;-79
2021/03/13 09:37:09;;;;;;;12.10;2.05;;;9.00;81.30;;;;;;5034011;28;20401;-79
2021/03/13 09:39:34;;;;;;;12.15;2.20;;;9.00;81.20;;;;;;5050587;28;20037;-79
2021/03/13 09:42:05;;;;;;;17.83;1.95;;;9.00;79.60;;;;;;5023751;28;20025;-79
2021/03/13 09:44:35;;;;;;;12.27;2.40;;;9.10;79.30;;;;;;5044053;28;20478;-79
2021/03/13 09:47:19;;;;;;;6.95;1.63;;;9.10;79.30;;;;;;5035718;28;20533;-79
2021/03/13 09:49:50;;;;;;;23.83;2.92;;;9.10;79.10;;;;;;5042639;28;20071;-79
2021/03/13 09:52:23;;;;;;;14.25;1.85;;;9.10;78.80;;;;;;5053965;28;20061;-79
2021/03/13 09:54:50;;;;;;;16.77;2.58;;;9.20;78.20;;;;;;5053124;28;20073;-79
2021/03/13 09:57:15;;;;;;;16.60;2.42;;;9.20;77.70;;;;;;5051484;28;20483;-79
2021/03/13 09:59:42;;;;;;;18.80;2.90;;;9.20;76.00;;;;;;5053462;28;20508;-79
2021/03/13 10:02:09;;;;;;;12.93;2.40;;;9.20;76.70;;;;;;5051609;28;20132;-79
2021/03/13 10:04:34;;;;;;;13.45;1.95;;;9.30;76.00;;;;;;5049010;28;20029;-79
2021/03/13 10:07:00;;;;;;;15.18;2.72;;;9.30;74.80;;;;;;5042181;28;20033;-79
2021/03/13 10:09:26;;;;;;;14.68;2.40;;;9.30;74.40;;;;;;5048344;28;20132;-79
2021/03/13 10:11:52;;;;;;;16.58;2.40;;;9.30;75.10;;;;;;5030395;28;20435;-79
2021/03/13 10:14:22;;;;;;;18.92;2.88;;;9.30;75.50;;;;;;5054647;28;20096;-79
2021/03/13 10:17:00;;;;;;;15.65;2.63;;;9.30;73.90;;;;;;5040510;28;20025;-79
2021/03/13 10:19:40;;;;;;;13.60;2.05;;;9.30;72.60;;;;;;5036961;28;20021;-79
2021/03/13 10:22:14;;;;;;;17.42;2.63;;;9.30;73.60;;;;;;5050279;28;20450;-79
2021/03/13 10:24:50;;;;;;;18.38;3.08;;;9.30;74.00;;;;;;5053733;28;20013;-79
2021/03/13 10:27:27;;;;;;;17.17;2.63;;;9.30;74.50;;;;;;5050164;28;20503;-79
2021/03/13 10:29:55;;;;;;;13.07;2.08;;;9.40;74.90;;;;;;5046151;28;20056;-78
2021/03/13 10:32:25;;;;;;;13.35;2.50;;;9.60;73.60;;;;;;5050878;28;20518;-80
2021/03/13 10:35:04;;;;;;;17.27;2.40;;;9.70;72.60;;;;;;5043126;28;20033;-79
2021/03/13 10:37:44;;;;;;;13.18;2.08;;;9.80;73.50;;;;;;5039322;28;20033;-75
2021/03/13 10:40:29;;;;;;;14.18;2.40;;;9.80;73.80;;;;;;5039526;28;20028;-75
2021/03/13 10:43:29;;;;;;;14.52;2.70;;;9.80;74.00;;;;;;5049998;28;20072;-76
2021/03/13 10:45:57;;;;;;;15.13;2.78;;;9.80;74.30;;;;;;5051006;28;20057;-77
2021/03/13 10:48:36;;;;;;;21.47;2.50;;;9.90;74.30;;;;;;5054315;28;20017;-78
2021/03/13 10:51:03;;;;;;;18.95;2.65;;;10.00;74.30;;;;;;5052928;28;20769;-76
2021/03/13 10:53:40;;;;;;;20.10;3.08;;;10.20;74.10;;;;;;5051927;28;20029;-78
2021/03/13 10:56:08;;;;;;;19.40;2.85;;;10.50;71.90;;;;;;5035210;28;20032;-76
2021/03/13 10:58:55;;;;;;;20.60;3.00;;;10.70;72.30;;;;;;5053270;28;20033;-76
2021/03/13 11:01:22;;;;;;;17.85;3.17;;;10.90;70.40;;;;;;5052230;28;20489;-76
2021/03/13 11:03:49;;;;;;;16.30;2.88;;;11.10;68.90;;;;;;5052844;28;20036;-78
2021/03/13 11:06:30;;;;;;;21.10;3.05;;;11.20;68.70;;;;;;5035964;28;20473;-76
2021/03/13 11:08:58;;;;;;;22.40;3.00;;;11.20;66.70;;;;;;5050644;28;20021;-80
2021/03/13 11:11:24;;;;;;;17.88;2.50;;;11.40;67.50;;;;;;5034378;28;20126;-80
2021/03/13 11:13:50;;;;;;;14.35;2.50;;;11.40;65.90;;;;;;5058868;28;20111;-78
2021/03/13 11:16:16;;;;;;;13.00;2.72;;;11.40;65.50;;;;;;5044775;28;20466;-78
2021/03/13 11:18:42;;;;;;;18.50;3.13;;;11.30;66.30;;;;;;5051362;28;20068;-78
2021/03/13 11:21:08;;;;;;;16.30;2.25;;;11.20;67.40;;;;;;5052204;28;20063;-78
2021/03/13 11:23:33;;;;;;;15.25;2.25;;;11.20;67.20;;;;;;5052291;28;20036;-78
2021/03/13 11:25:59;;;;;;;14.50;2.63;;;11.40;68.20;;;;;;5048178;28;20101;-79
2021/03/13 11:28:25;;;;;;;17.45;2.60;;;11.50;67.40;;;;;;5052021;28;20462;-79
2021/03/13 11:30:50;;;;;;;10.98;2.15;;;11.60;66.80;;;;;;5052612;28;20021;-78
2021/03/13 11:33:16;;;;;;;18.13;3.08;;;11.60;65.70;;;;;;5053038;28;20041;-82
2021/03/13 11:35:43;;;;;;;15.68;2.55;;;11.50;64.80;;;;;;5018803;28;20495;-83
2021/03/13 11:38:09;;;;;;;16.65;2.80;;;11.40;64.50;;;;;;5033112;28;20197;-79
2021/03/13 11:40:35;;;;;;;12.60;2.25;;;11.30;65.70;;;;;;5035467;28;20036;-78
2021/03/13 11:43:01;;;;;;;21.58;2.85;;;11.40;65.90;;;;;;5034797;28;20037;-79
2021/03/13 11:45:28;;;;;;;18.48;2.47;;;11.50;65.50;;;;;;5034814;28;20111;-78
2021/03/13 11:47:57;;;;;;;17.88;3.05;;;11.70;64.40;;;;;;5052044;28;20102;-85
2021/03/13 11:50:27;;;;;;;17.40;2.78;;;11.80;63.70;;;;;;5058937;28;20070;-87
2021/03/13 11:52:55;;;;;;;18.80;2.67;;;11.70;64.00;;;;;;5074162;28;20485;-87
2021/03/13 11:55:22;;;;;;;17.55;2.50;;;11.60;64.00;;;;;;5052619;28;20087;-87
2021/03/13 11:57:48;;;;;;;19.25;2.55;;;11.40;65.30;;;;;;5052330;28;20029;-81
2021/03/13 12:00:14;;;;;;;13.73;2.38;;;11.10;68.60;;;;;;5052518;28;20057;-83
2021/03/13 12:02:41;;;;;;;17.38;2.35;;;10.80;68.00;;;;;;5051446;28;20449;-81
2021/03/13 12:05:07;;;;;;;11.73;1.92;;;10.60;70.00;;;;;;5035325;28;20035;-83
2021/03/13 12:07:34;;;;;;;14.23;2.13;;;10.60;70.30;;;;;;5040908;28;20120;-83
2021/03/13 12:10:00;;;;;;;11.15;1.75;;;10.70;70.50;;;;;;5051479;28;20033;-81
2021/03/13 12:12:26;;;;;;;13.27;2.33;;;10.80;71.40;;;;;;5051514;28;20119;-80
2021/03/13 12:14:51;;;;;;;12.27;2.33;;;10.90;70.00;;;;;;5035117;28;20029;-82
2021/03/13 12:17:17;;;;;;;14.23;2.67;;;11.00;68.10;;;;;;5034230;28;20032;-76
2021/03/13 12:19:43;;;;;;;13.25;2.60;;;10.90;68.50;;;;;;5045937;28;20025;-76
2021/03/13 12:25:01;;;;;;;11.80;2.35;;;10.40;73.10;;;;;;5046110;28;20088;-75
2021/03/13 12:27:26;;;;;;;15.98;2.33;;;9.80;74.30;;;;;;5051279;28;20060;-76
2021/03/13 12:29:52;;;;;;;14.65;2.38;;;9.60;77.70;;;;;;5034021;28;20465;-75
2021/03/13 12:32:18;;;;;;;18.50;2.53;;;9.40;79.70;;;;;;5050998;28;20029;-76
2021/03/13 12:34:46;;;;;;;18.08;2.45;;;9.40;80.40;;;;;;5051071;28;20091;-75
2021/03/13 12:37:12;;;;;;;16.95;2.47;;;9.50;79.70;;;;;;5034586;28;20479;-76
2021/03/13 12:39:37;;;;;;;18.08;2.75;;;9.40;79.70;;;;;;5050800;28;20108;-75
2021/03/13 12:42:03;;;;;;;16.00;3.03;;;9.40;79.40;;;;;;5034295;28;20492;-75
2021/03/13 12:44:29;;;;;;;15.00;2.90;;;9.30;79.90;;;;;;5050987;28;20113;-74
2021/03/13 12:46:55;;;;;;;22.80;3.47;;;9.30;78.80;;;;;;5051748;28;20059;-75
2021/03/13 12:49:20;;;;;;;24.60;3.55;;;9.20;79.30;;;;;;5034128;28;20029;-75
2021/03/13 12:51:46;;;;;;;19.80;3.05;;;9.00;81.50;;;;;;5018460;28;20029;-76
2021/03/13 12:54:12;;;;;;;14.48;2.05;;;8.80;81.20;;;;;;5050694;28;20040;-77
2021/03/13 12:56:37;;;;;;;12.73;2.17;;;8.40;80.80;;;;;;5033540;28;20037;-74
2021/03/13 12:59:03;;;;;;;10.80;1.65;;;8.00;78.90;;;;;;5050524;28;20442;-75
2021/03/13 13:01:29;;;;;;;18.48;2.03;;;7.50;80.90;;;;;;5053414;28;20032;-79
2021/03/13 13:03:58;;;;;;;14.95;2.45;;;7.10;83.40;;;;;;5054934;28;20041;-80